createdAt,value
2023-03-06T00:01:17.028Z,2.50
2023-03-06T00:06:18.699Z,2.13
2023-03-06T00:11:20.634Z,2.47
2023-03-06T00:16:22.143Z,3.22
2023-03-06T00:21:23.602Z,2.30
2023-03-06T00:26:25.025Z,3.35
2023-03-06T00:31:26.480Z,2.92
2023-03-06T00:36:28.009Z,3.05
2023-03-06T00:41:29.655Z,2.47
2023-03-06T00:46:32.592Z,2.08
2023-03-06T00:51:34.209Z,2.90
2023-03-06T00:56:36.052Z,3.50
2023-03-06T01:01:37.547Z,2.88
2023-03-06T01:06:39.169Z,3.33
2023-03-06T01:11:41.042Z,3.33
2023-03-06T01:16:42.523Z,3.15
2023-03-06T01:21:44.207Z,2.63
2023-03-06T01:26:45.684Z,2.97
2023-03-06T01:31:47.510Z,2.85
2023-03-06T01:36:49.070Z,3.58
2023-03-06T01:41:50.526Z,3.10
2023-03-06T01:46:52.018Z,3.63
2023-03-06T01:52:03.552Z,4.28
2023-03-06T01:57:37.732Z,3.67
2023-03-06T02:02:42.553Z,3.58
2023-03-06T02:07:45.939Z,3.58
2023-03-06T02:12:50.226Z,3.50
2023-03-06T02:17:52.671Z,3.85
2023-03-06T02:23:06.895Z,3.75
2023-03-06T02:28:12.186Z,4.07
2023-03-06T02:33:20.553Z,5.03
2023-03-06T02:38:27.062Z,4.60
2023-03-06T02:43:33.131Z,4.15
2023-03-06T02:48:34.803Z,4.03
2023-03-06T02:53:36.398Z,3.75
2023-03-06T02:58:37.978Z,4.70
2023-03-06T03:03:39.615Z,4.10
2023-03-06T03:08:41.247Z,4.18
2023-03-06T03:13:44.263Z,4.93
2023-03-06T03:18:54.005Z,4.75
2023-03-06T03:23:57.544Z,4.30
2023-03-06T03:29:05.007Z,4.75
2023-03-06T03:34:06.614Z,4.80
2023-03-06T03:39:12.114Z,5.20
2023-03-06T03:44:15.203Z,3.88
2023-03-06T03:49:17.417Z,5.13
2023-03-06T03:54:19.302Z,5.07
2023-03-06T03:59:23.302Z,5.25
2023-03-06T04:04:48.043Z,4.18
2023-03-06T04:09:49.735Z,4.55
2023-03-06T04:14:52.494Z,4.80
2023-03-06T04:19:54.338Z,4.82
2023-03-06T04:24:56.596Z,4.65
2023-03-06T04:29:58.240Z,5.60
2023-03-06T04:34:59.973Z,5.18
2023-03-06T04:40:07.115Z,5.57
2023-03-06T04:50:11.095Z,5.63
2023-03-06T05:00:19.224Z,5.07
2023-03-06T05:05:20.660Z,5.60
2023-03-06T05:10:22.726Z,5.45
2023-03-06T05:15:24.148Z,5.07
2023-03-06T05:20:25.975Z,6.15
2023-03-06T05:25:27.415Z,7.50
2023-03-06T05:30:28.856Z,5.85
2023-03-06T05:35:30.367Z,6.38
2023-03-06T05:40:31.844Z,5.93
2023-03-06T05:45:33.376Z,5.68
2023-03-06T05:50:34.845Z,5.70
2023-03-06T05:55:36.293Z,5.78
2023-03-06T06:00:37.729Z,6.15
2023-03-06T06:05:39.773Z,6.63
2023-03-06T06:10:41.377Z,5.25
2023-03-06T06:15:42.812Z,5.47
2023-03-06T06:20:44.275Z,6.20
2023-03-06T06:25:45.724Z,6.15
2023-03-06T06:30:47.192Z,4.90
2023-03-06T06:35:48.676Z,6.50
2023-03-06T06:41:26.752Z,5.78
2023-03-06T06:46:47.094Z,6.25
2023-03-06T06:51:33.833Z,6.85
2023-03-06T06:56:35.322Z,5.88
2023-03-06T07:01:36.825Z,6.07
2023-03-06T07:06:38.286Z,5.30
2023-03-06T07:11:40.379Z,5.88
2023-03-06T07:16:41.806Z,7.05
2023-03-06T07:21:43.242Z,7.07
2023-03-06T07:26:48.420Z,6.35
2023-03-06T07:31:49.884Z,5.22
2023-03-06T07:36:51.331Z,5.20
2023-03-06T07:41:53.472Z,5.53
2023-03-06T07:46:55.021Z,7.07
2023-03-06T07:51:56.476Z,5.55
2023-03-06T07:56:58.147Z,5.22
2023-03-06T08:02:04.401Z,6.50
2023-03-06T08:07:16.740Z,6.57
2023-03-06T08:12:18.196Z,5.80
2023-03-06T08:18:06.082Z,5.80
2023-03-06T08:23:46.629Z,6.10
2023-03-06T08:28:48.431Z,6.55
2023-03-06T08:33:49.903Z,6.43
2023-03-06T08:38:51.599Z,6.95
2023-03-06T08:43:53.195Z,5.60
2023-03-06T08:48:54.736Z,6.00
2023-03-06T08:55:02.965Z,7.70
2023-03-06T09:00:36.929Z,7.57
2023-03-06T09:05:40.449Z,8.68
2023-03-06T09:10:46.981Z,6.13
2023-03-06T09:15:48.559Z,8.10
2023-03-06T09:20:50.015Z,7.18
2023-03-06T09:25:55.675Z,7.65
2023-03-06T09:30:57.381Z,7.38
2023-03-06T09:35:59.039Z,8.55
2023-03-06T09:41:06.400Z,8.70
2023-03-06T09:47:04.850Z,8.57
2023-03-06T09:52:36.256Z,8.25
2023-03-06T09:58:31.521Z,8.38
2023-03-06T10:04:14.798Z,7.45
2023-03-06T10:09:53.375Z,8.18
2023-03-06T10:16:19.582Z,9.38
2023-03-06T10:21:55.882Z,8.55
2023-03-06T10:27:32.126Z,7.10
2023-03-06T10:33:16.684Z,8.18
2023-03-06T10:38:37.392Z,8.63
2023-03-06T10:55:29.137Z,9.32
2023-03-06T11:41:50.761Z,13.07
2023-03-06T12:19:16.912Z,10.60
2023-03-06T12:24:43.158Z,11.27
2023-03-06T12:30:09.594Z,9.57
2023-03-06T12:35:29.700Z,7.68
2023-03-06T12:41:19.401Z,7.72
2023-03-06T12:46:23.258Z,7.85
2023-03-06T12:51:25.024Z,8.65
2023-03-06T12:56:28.174Z,8.70
2023-03-06T13:01:41.053Z,8.48
2023-03-06T13:06:59.406Z,10.10
2023-03-06T13:12:15.761Z,8.60
2023-03-06T13:17:22.980Z,8.45
2023-03-06T13:22:27.860Z,8.85
2023-03-06T13:27:52.152Z,8.40
2023-03-06T13:32:54.658Z,8.73
2023-03-06T13:37:57.317Z,8.98
2023-03-06T13:43:07.507Z,8.77
2023-03-06T13:48:47.333Z,9.13
2023-03-06T13:54:11.312Z,9.57
2023-03-06T13:59:44.786Z,9.65
2023-03-06T14:04:58.573Z,9.07
2023-03-06T14:10:08.558Z,9.60
2023-03-06T14:15:28.218Z,8.45
2023-03-06T14:20:42.197Z,9.50
2023-03-06T14:25:45.850Z,8.32
2023-03-06T14:30:52.069Z,8.25
2023-03-06T14:35:56.672Z,8.63
2023-03-06T14:40:58.434Z,7.45
2023-03-06T14:46:02.500Z,8.07
2023-03-06T14:51:04.241Z,7.53
2023-03-06T14:56:07.572Z,6.97
2023-03-06T15:01:10.784Z,6.00
2023-03-06T15:06:27.290Z,6.38
2023-03-06T15:11:52.196Z,7.07
2023-03-06T15:16:53.685Z,6.72
2023-03-06T15:21:55.162Z,5.95
2023-03-06T15:27:01.503Z,6.63
2023-03-06T15:32:29.448Z,6.53
2023-03-06T15:37:39.182Z,5.00
2023-03-06T15:42:42.465Z,7.43
2023-03-06T15:47:44.759Z,6.35
2023-03-06T15:52:47.000Z,4.85
2023-03-06T15:58:00.673Z,4.57
2023-03-06T16:03:03.306Z,5.05
2023-03-06T16:08:05.924Z,4.53
2023-03-06T16:13:12.805Z,5.07
2023-03-06T16:18:14.350Z,5.68
2023-03-06T16:23:16.392Z,4.75
2023-03-06T16:33:19.228Z,4.97
2023-03-06T16:38:20.733Z,5.18
2023-03-06T16:43:22.167Z,4.28
2023-03-06T16:48:23.596Z,4.30
2023-03-06T16:53:25.029Z,4.18
2023-03-06T16:58:26.471Z,4.85
2023-03-06T17:03:27.924Z,3.92
2023-03-06T17:08:29.805Z,5.07
2023-03-06T17:13:31.226Z,4.07
2023-03-06T17:18:32.990Z,4.95
2023-03-06T17:23:34.448Z,6.13
2023-03-06T17:28:37.345Z,5.18
2023-03-06T17:33:38.811Z,4.80
2023-03-06T17:38:41.077Z,4.45
2023-03-06T17:48:44.430Z,5.85
2023-03-06T17:53:45.901Z,6.38
2023-03-06T18:05:45.225Z,6.35
2023-03-06T18:10:47.625Z,5.82
2023-03-06T18:15:49.064Z,5.70
2023-03-06T18:20:50.586Z,5.30
2023-03-06T18:25:52.618Z,6.07
2023-03-06T18:40:56.970Z,6.43
2023-03-06T18:45:58.432Z,4.88
2023-03-06T18:51:08.092Z,5.38
2023-03-06T18:56:16.744Z,5.88
2023-03-06T19:01:18.596Z,8.75
2023-03-06T19:06:20.260Z,5.68
2023-03-06T19:11:21.680Z,5.82
2023-03-06T19:16:26.236Z,7.90
2023-03-06T19:21:27.976Z,7.85
2023-03-06T19:26:29.486Z,5.38
2023-03-06T19:31:30.920Z,6.50
2023-03-06T19:36:34.136Z,5.43
2023-03-06T19:41:38.019Z,5.50
2023-03-06T19:46:40.597Z,5.78
2023-03-06T19:51:42.295Z,5.97
2023-03-06T19:56:43.748Z,6.05
2023-03-06T20:01:45.234Z,6.65
2023-03-06T20:06:49.829Z,7.70
2023-03-06T20:12:53.807Z,6.88
2023-03-06T20:17:56.806Z,4.13
2023-03-06T20:23:02.554Z,6.20
2023-03-06T20:28:04.547Z,7.60
2023-03-06T20:33:06.005Z,6.97
2023-03-06T20:38:07.436Z,7.30
2023-03-06T20:43:08.862Z,7.72
2023-03-06T20:48:10.320Z,7.82
2023-03-06T20:53:11.787Z,7.95
2023-03-06T20:58:13.212Z,8.02
2023-03-06T21:03:14.901Z,7.80
2023-03-06T21:08:17.079Z,7.63
2023-03-06T21:13:19.116Z,7.80
2023-03-06T21:18:20.694Z,8.65
2023-03-06T21:23:22.148Z,7.32
2023-03-06T21:28:23.608Z,6.35
2023-03-06T21:33:28.606Z,8.65
2023-03-06T21:38:30.322Z,8.45
2023-03-06T21:43:31.758Z,8.63
2023-03-06T21:48:33.771Z,6.60
2023-03-06T21:53:35.870Z,8.40
2023-03-06T21:58:37.652Z,7.80
2023-03-06T22:03:39.197Z,8.63
2023-03-06T22:08:41.703Z,7.70
2023-03-06T22:13:43.740Z,7.95
2023-03-06T22:18:47.019Z,8.65
2023-03-06T22:23:52.763Z,9.52
2023-03-06T22:28:54.497Z,8.43
2023-03-06T22:33:58.407Z,9.65
2023-03-06T22:39:01.832Z,8.45
2023-03-06T22:44:03.520Z,8.15
2023-03-06T22:49:05.067Z,8.48
2023-03-06T22:54:07.759Z,9.52
2023-03-06T22:59:09.202Z,7.97
2023-03-06T23:04:11.295Z,10.10
2023-03-06T23:09:16.003Z,9.20
2023-03-06T23:14:35.916Z,8.75
2023-03-06T23:19:55.720Z,8.93
2023-03-06T23:25:15.744Z,8.35
2023-03-06T23:30:17.358Z,8.15
2023-03-06T23:35:19.040Z,7.15
2023-03-06T23:40:20.525Z,9.10
2023-03-06T23:45:22.100Z,8.95
2023-03-06T23:50:24.556Z,8.10
2023-03-06T23:55:25.994Z,9.23
